Time;durP1;ratioP1;P1;durP2;ratioP2;P2;SDS_P1;SDS_P2;PMS_P1;PMS_P2;Temp;Humidity;BMP_temperature;BMP_pressure;BME280_temperature;BME280_humidity;BME280_pressure;Samples;Min_cycle;Max_cycle;Signal;HPM_P1;HPM_P2
2021/04/25 00:02:59;;;;;;;11.32;3.95;;;4.20;99.90;;;;;;12379677;28;20192;-79
2021/04/25 00:09:01;;;;;;;10.20;3.75;;;4.20;99.90;;;;;;12383837;28;20050;-79
2021/04/25 00:15:03;;;;;;;9.63;3.92;;;4.20;99.90;;;;;;12380703;28;20131;-79
2021/04/25 00:21:05;;;;;;;10.10;3.78;;;4.10;99.90;;;;;;12383182;28;20756;-79
2021/04/25 00:27:06;;;;;;;18.63;5.30;;;4.00;99.90;;;;;;12377471;28;20118;-79
2021/04/25 00:33:08;;;;;;;10.05;3.67;;;4.10;99.90;;;;;;12391701;28;20141;-80
2021/04/25 00:39:09;;;;;;;8.02;3.25;;;4.20;99.90;;;;;;12384456;28;20173;-79
2021/04/25 00:45:14;;;;;;;10.23;3.42;;;3.80;99.90;;;;;;12382068;28;20047;-79
2021/04/25 00:51:15;;;;;;;10.98;3.30;;;4.00;99.90;;;;;;12370429;28;20086;-79
2021/04/25 00:57:17;;;;;;;10.57;3.35;;;3.80;99.90;;;;;;12382448;28;20058;-79
2021/04/25 01:03:22;;;;;;;13.20;4.05;;;4.00;99.90;;;;;;12382867;28;20074;-79
2021/04/25 01:09:24;;;;;;;10.85;3.70;;;3.90;99.90;;;;;;12387766;28;20046;-79
2021/04/25 01:15:25;;;;;;;7.28;3.08;;;3.70;99.90;;;;;;12384475;28;20058;-79
2021/04/25 01:21:27;;;;;;;16.80;4.20;;;3.70;99.90;;;;;;12387351;28;20346;-79
2021/04/25 01:27:28;;;;;;;10.70;3.85;;;3.70;99.90;;;;;;12386999;28;20489;-79
2021/04/25 01:33:29;;;;;;;7.10;2.85;;;3.50;99.90;;;;;;12380592;28;20042;-79
2021/04/25 01:39:31;;;;;;;8.05;3.20;;;3.50;99.90;;;;;;12383683;28;20086;-79
2021/04/25 01:45:32;;;;;;;8.68;3.50;;;3.70;99.90;;;;;;12382614;28;20145;-79
2021/04/25 01:51:35;;;;;;;9.98;3.58;;;3.50;99.90;;;;;;12399900;28;20092;-80
2021/04/25 01:57:37;;;;;;;10.85;3.85;;;3.50;99.90;;;;;;12376933;28;21068;-79
2021/04/25 02:03:38;;;;;;;11.85;4.15;;;3.70;99.90;;;;;;12384192;28;20046;-79
2021/04/25 02:09:39;;;;;;;10.02;4.22;;;3.80;99.90;;;;;;12385656;28;20770;-79
2021/04/25 02:15:41;;;;;;;10.48;4.05;;;3.70;99.90;;;;;;12389513;28;20049;-79
2021/04/25 02:21:42;;;;;;;10.52;4.85;;;3.80;99.90;;;;;;12388939;28;20042;-79
2021/04/25 02:27:44;;;;;;;10.85;3.95;;;3.90;99.90;;;;;;12403588;28;20046;-79
2021/04/25 02:33:46;;;;;;;8.68;3.88;;;4.00;99.90;;;;;;12384606;28;20042;-79
2021/04/25 02:39:53;;;;;;;10.52;4.32;;;4.00;99.90;;;;;;12389864;28;20050;-79
2021/04/25 02:45:54;;;;;;;12.88;4.63;;;4.00;99.90;;;;;;12383512;28;20046;-80
2021/04/25 02:51:56;;;;;;;12.35;4.72;;;4.10;99.90;;;;;;12386350;28;20081;-79
2021/04/25 02:57:57;;;;;;;11.45;3.67;;;3.90;99.90;;;;;;12385921;28;20049;-79
2021/04/25 03:03:58;;;;;;;10.30;4.38;;;4.20;99.90;;;;;;12383217;28;20073;-80
2021/04/25 03:09:59;;;;;;;9.88;4.15;;;4.20;99.90;;;;;;12392545;28;20096;-80
2021/04/25 03:16:01;;;;;;;9.35;3.75;;;4.20;99.90;;;;;;12384512;28;20134;-79
2021/04/25 03:22:03;;;;;;;16.45;3.97;;;4.20;99.90;;;;;;12387888;28;20332;-80
2021/04/25 03:28:04;;;;;;;14.27;3.90;;;4.00;99.90;;;;;;12391694;28;20173;-79
2021/04/25 03:34:05;;;;;;;9.13;3.95;;;3.90;99.90;;;;;;12390745;28;20054;-80
2021/04/25 03:40:10;;;;;;;7.32;3.08;;;4.40;99.90;;;;;;12392046;28;20050;-79
2021/04/25 03:46:11;;;;;;;6.90;2.83;;;4.30;99.90;;;;;;12384427;28;20055;-79
2021/04/25 03:52:13;;;;;;;6.50;2.35;;;4.60;99.90;;;;;;12387030;28;20084;-79
2021/04/25 03:58:15;;;;;;;7.82;3.10;;;4.50;99.90;;;;;;12387608;28;20054;-79
2021/04/25 04:04:16;;;;;;;8.77;3.05;;;4.60;99.90;;;;;;12387504;28;20070;-79
2021/04/25 04:10:18;;;;;;;11.63;2.50;;;4.60;99.90;;;;;;12385667;28;20548;-79
2021/04/25 04:16:19;;;;;;;7.07;2.30;;;4.70;99.90;;;;;;12386275;28;20522;-79
2021/04/25 04:22:20;;;;;;;12.85;2.42;;;4.60;99.90;;;;;;12385898;28;20081;-79
2021/04/25 04:28:22;;;;;;;5.18;1.95;;;4.50;99.90;;;;;;12404892;28;20042;-79
2021/04/25 04:34:23;;;;;;;6.75;2.22;;;4.50;99.90;;;;;;12382941;28;20183;-79
2021/04/25 04:40:25;;;;;;;7.82;2.47;;;4.70;99.90;;;;;;12389198;28;20129;-79
2021/04/25 04:46:26;;;;;;;5.82;1.90;;;4.70;99.90;;;;;;12383044;28;20181;-79
2021/04/25 04:52:28;;;;;;;4.07;1.98;;;4.80;99.90;;;;;;12379803;28;20062;-79
2021/04/25 04:58:29;;;;;;;9.70;2.03;;;4.80;99.90;;;;;;12388436;28;20073;-80
2021/04/25 05:04:31;;;;;;;7.97;2.15;;;4.70;99.90;;;;;;12384797;28;20141;-79
2021/04/25 05:10:32;;;;;;;9.48;2.35;;;4.80;99.90;;;;;;12384986;28;20042;-79
2021/04/25 05:16:33;;;;;;;5.95;1.70;;;4.80;99.90;;;;;;12392259;28;20140;-79
2021/04/25 05:22:35;;;;;;;11.93;2.13;;;4.80;99.90;;;;;;12389162;28;20049;-80
2021/04/25 05:28:36;;;;;;;7.40;1.92;;;4.90;99.90;;;;;;12393236;28;20824;-80
2021/04/25 05:34:37;;;;;;;5.80;2.00;;;5.00;99.90;;;;;;12390134;28;20402;-79
2021/04/25 05:40:39;;;;;;;7.15;1.75;;;5.00;99.90;;;;;;12383012;28;20185;-79
2021/04/25 05:46:40;;;;;;;4.43;1.58;;;5.10;99.90;;;;;;12385055;28;20054;-79
2021/04/25 05:52:42;;;;;;;4.20;1.75;;;5.20;99.90;;;;;;12379478;28;20070;-80
2021/04/25 05:58:43;;;;;;;8.65;2.53;;;5.20;99.90;;;;;;12380217;28;20038;-79
2021/04/25 06:04:44;;;;;;;13.40;2.05;;;5.30;99.90;;;;;;12372976;28;20126;-79
2021/04/25 06:10:46;;;;;;;8.80;2.90;;;5.40;99.90;;;;;;12383119;28;20142;-79
2021/04/25 06:16:47;;;;;;;7.93;2.60;;;5.40;99.90;;;;;;12380164;28;20551;-79
2021/04/25 06:22:48;;;;;;;9.68;2.50;;;5.40;99.90;;;;;;12399460;28;20057;-79
2021/04/25 06:28:51;;;;;;;7.07;2.40;;;5.40;99.90;;;;;;12384963;28;20080;-79
2021/04/25 06:34:52;;;;;;;4.13;1.90;;;5.50;99.90;;;;;;12380597;28;20049;-79
2021/04/25 06:40:53;;;;;;;9.02;2.20;;;5.50;99.90;;;;;;12378900;28;20614;-79
2021/04/25 06:46:55;;;;;;;7.30;2.20;;;5.70;99.90;;;;;;12382539;28;20129;-79
2021/04/25 06:52:56;;;;;;;6.20;1.83;;;5.60;99.90;;;;;;12390124;28;20057;-79
2021/04/25 06:58:57;;;;;;;6.32;2.28;;;5.70;99.90;;;;;;12392444;28;20108;-79
2021/04/25 07:04:59;;;;;;;6.60;1.70;;;5.80;99.90;;;;;;12384088;28;20043;-79
2021/04/25 07:11:00;;;;;;;7.40;1.80;;;6.10;99.90;;;;;;12383933;28;20124;-79
2021/04/25 07:17:02;;;;;;;6.85;1.70;;;6.10;99.90;;;;;;12388637;28;20138;-79
2021/04/25 07:23:04;;;;;;;6.22;1.50;;;6.00;99.90;;;;;;12404171;28;20050;-79
2021/04/25 07:29:05;;;;;;;8.50;1.80;;;5.90;99.90;;;;;;12388453;28;20050;-79
2021/04/25 07:35:08;;;;;;;8.07;1.52;;;5.90;99.90;;;;;;12390334;28;20046;-79
2021/04/25 07:41:11;;;;;;;7.57;1.38;;;5.90;99.90;;;;;;12405612;28;20050;-79
2021/04/25 07:47:12;;;;;;;7.88;1.48;;;6.00;99.90;;;;;;12390146;28;20054;-79
2021/04/25 07:53:16;;;;;;;9.00;1.60;;;6.00;99.90;;;;;;12388355;28;20049;-79
2021/04/25 07:59:17;;;;;;;7.25;1.40;;;6.10;99.90;;;;;;12389716;28;20080;-79
2021/04/25 08:05:19;;;;;;;9.55;2.17;;;6.30;99.90;;;;;;12388181;28;20235;-79
2021/04/25 08:11:21;;;;;;;5.45;1.85;;;6.40;99.90;;;;;;12385544;28;20076;-79
2021/04/25 08:17:22;;;;;;;9.23;2.10;;;6.40;99.90;;;;;;12384387;28;20190;-79
2021/04/25 08:23:23;;;;;;;6.07;1.60;;;6.50;99.90;;;;;;12387111;28;20833;-79
2021/04/25 08:29:25;;;;;;;9.15;1.20;;;6.60;99.90;;;;;;12387710;28;20129;-79
2021/04/25 08:35:26;;;;;;;7.82;1.65;;;6.70;99.90;;;;;;12387064;28;20200;-79
2021/04/25 08:41:29;;;;;;;4.45;1.30;;;6.80;99.90;;;;;;12385601;28;20137;-79
2021/04/25 08:47:30;;;;;;;7.50;1.50;;;6.90;99.90;;;;;;12389052;28;20461;-80
2021/04/25 08:53:32;;;;;;;7.53;1.35;;;7.10;99.90;;;;;;12398975;28;20049;-79
2021/04/25 08:59:33;;;;;;;5.22;1.38;;;7.10;99.90;;;;;;12391684;28;20054;-80
2021/04/25 09:05:36;;;;;;;7.15;1.13;;;7.40;99.90;;;;;;12387318;28;20498;-79
2021/04/25 09:11:41;;;;;;;8.88;1.50;;;7.60;99.90;;;;;;12397482;28;20050;-80
2021/04/25 09:18:12;;;;;;;3.15;1.02;;;7.60;99.90;;;;;;12389026;28;20067;-79
2021/04/25 09:24:30;;;;;;;5.53;1.33;;;7.60;99.90;;;;;;12387910;28;21128;-80
2021/04/25 09:30:32;;;;;;;7.22;1.40;;;7.80;99.90;;;;;;12390844;28;20336;-80
2021/04/25 09:36:34;;;;;;;5.05;1.38;;;7.70;99.90;;;;;;12395589;28;20138;-79
2021/04/25 09:42:54;;;;;;;7.30;1.20;;;8.40;99.90;;;;;;12392582;28;20588;-79
2021/04/25 09:48:56;;;;;;;5.18;1.40;;;8.30;99.90;;;;;;12405026;28;20168;-80
2021/04/25 09:55:18;;;;;;;8.02;2.10;;;8.10;99.90;;;;;;12382197;28;20069;-79
2021/04/25 10:01:27;;;;;;;8.23;1.77;;;8.30;99.90;;;;;;12386961;28;20049;-80
2021/04/25 10:07:35;;;;;;;10.50;1.92;;;8.60;99.90;;;;;;12383096;28;20544;-79
2021/04/25 10:13:39;;;;;;;6.43;1.50;;;8.60;99.90;;;;;;12402514;28;20396;-79
2021/04/25 10:19:40;;;;;;;7.00;1.20;;;8.70;99.90;;;;;;12387284;28;20047;-80
2021/04/25 10:25:43;;;;;;;6.07;1.20;;;8.60;99.90;;;;;;12387638;28;20133;-79
2021/04/25 10:31:45;;;;;;;6.63;1.38;;;8.70;99.90;;;;;;12399579;28;20129;-79
2021/04/25 10:37:48;;;;;;;6.13;1.08;;;8.80;99.90;;;;;;12412249;28;20130;-79
2021/04/25 10:44:06;;;;;;;6.40;1.65;;;9.00;99.90;;;;;;12395068;28;20038;-80
2021/04/25 10:50:13;;;;;;;7.57;1.38;;;9.70;99.90;;;;;;12394776;28;20584;-80
2021/04/25 10:56:15;;;;;;;4.70;1.10;;;10.60;99.90;;;;;;12384628;28;20123;-80
2021/04/25 11:02:36;;;;;;;6.80;1.40;;;11.60;99.90;;;;;;12410289;28;20104;-80
2021/04/25 11:08:39;;;;;;;5.88;1.25;;;11.00;99.90;;;;;;12390324;28;20042;-80
2021/04/25 11:14:40;;;;;;;6.18;1.38;;;10.30;99.90;;;;;;12399582;28;20042;-80
2021/04/25 11:20:42;;;;;;;7.75;1.60;;;10.30;99.90;;;;;;12394467;28;20508;-80
2021/04/25 11:26:45;;;;;;;5.95;1.55;;;11.50;99.90;;;;;;12401984;28;20104;-80
2021/04/25 11:32:46;;;;;;;3.92;1.40;;;11.40;99.90;;;;;;12394285;28;20193;-80
2021/04/25 11:38:49;;;;;;;7.15;1.30;;;11.40;99.90;;;;;;12393232;28;20243;-80
2021/04/25 11:44:51;;;;;;;4.68;1.50;;;11.90;99.90;;;;;;12393355;28;20038;-80
2021/04/25 11:50:52;;;;;;;4.70;1.40;;;13.20;99.90;;;;;;12392677;28;20483;-80
2021/04/25 11:57:07;;;;;;;9.00;1.63;;;12.70;99.90;;;;;;12390510;28;20185;-80
2021/04/25 12:03:08;;;;;;;;;;;11.70;99.90;;;;;;12390832;28;20475;-80
2021/04/25 12:09:09;;;;;;;7.57;2.60;;;11.00;99.90;;;;;;12390395;28;19944;-80
2021/04/25 12:15:12;;;;;;;6.72;1.67;;;11.30;99.90;;;;;;12387493;28;20535;-80
2021/04/25 12:21:17;;;;;;;6.25;1.60;;;11.70;99.90;;;;;;12406438;28;20052;-80
2021/04/25 12:27:18;;;;;;;;;;;12.20;99.90;;;;;;12390820;28;20045;-80
2021/04/25 12:33:19;;;;;;;5.82;1.73;;;12.80;99.90;;;;;;12407015;28;20006;-80
2021/04/25 12:39:21;;;;;;;10.10;1.30;;;13.00;99.90;;;;;;12391485;28;20042;-80
2021/04/25 12:45:31;;;;;;;5.57;1.52;;;11.80;99.90;;;;;;12390496;28;20042;-80
2021/04/25 12:51:42;;;;;;;5.05;1.50;;;13.00;99.90;;;;;;12401115;28;20187;-80
2021/04/25 12:57:44;;;;;;;3.80;1.50;;;12.60;99.90;;;;;;12393275;28;20046;-80
2021/04/25 13:03:45;;;;;;;4.50;1.60;;;12.10;99.90;;;;;;12388202;28;20451;-81
2021/04/25 13:10:06;;;;;;;4.15;1.30;;;12.80;99.90;;;;;;12420657;28;20030;-81
2021/04/25 13:16:12;;;;;;;6.00;1.73;;;13.70;99.90;;;;;;12446380;28;20053;-80
2021/04/25 13:22:14;;;;;;;5.03;1.50;;;14.10;99.90;;;;;;12431625;28;20132;-81
2021/04/25 13:28:18;;;;;;;5.95;1.92;;;14.60;99.90;;;;;;12407418;28;20077;-80
2021/04/25 13:34:19;;;;;;;4.35;1.30;;;13.70;99.90;;;;;;12384550;28;20484;-80
2021/04/25 13:40:20;;;;;;;4.88;1.55;;;12.90;99.90;;;;;;12377192;28;20619;-80
2021/04/25 13:46:22;;;;;;;3.90;1.70;;;12.30;99.90;;;;;;12375549;28;20046;-81
2021/04/25 13:52:23;;;;;;;6.47;1.70;;;13.10;99.90;;;;;;12383207;28;20483;-81
2021/04/25 13:58:25;;;;;;;4.68;1.70;;;12.80;99.90;;;;;;12378922;28;20068;-81
2021/04/25 14:04:26;;;;;;;9.63;2.10;;;12.50;99.90;;;;;;12392892;28;20038;-80
2021/04/25 14:10:28;;;;;;;4.45;1.52;;;12.00;99.90;;;;;;12407623;28;20054;-80
2021/04/25 14:16:29;;;;;;;6.05;1.58;;;12.60;99.90;;;;;;12398644;28;20062;-81
2021/04/25 14:22:31;;;;;;;3.78;1.58;;;14.20;99.90;;;;;;12393071;28;20042;-80
2021/04/25 14:28:45;;;;;;;3.75;1.52;;;14.80;99.90;;;;;;12389261;28;20069;-80
2021/04/25 14:34:46;;;;;;;3.13;1.58;;;13.60;99.90;;;;;;12394430;28;20042;-80
2021/04/25 14:40:48;;;;;;;3.67;1.63;;;13.00;99.90;;;;;;12391462;28;20129;-80
2021/04/25 14:46:50;;;;;;;4.38;1.70;;;13.10;99.90;;;;;;12387655;28;20057;-79
2021/04/25 14:52:51;;;;;;;3.72;1.65;;;13.60;99.90;;;;;;12389761;28;20069;-80
2021/04/25 14:58:53;;;;;;;5.50;1.55;;;14.00;99.90;;;;;;12404458;28;20096;-80
2021/04/25 15:04:55;;;;;;;4.93;1.40;;;14.30;99.90;;;;;;12389703;28;20104;-80
2021/04/25 15:10:56;;;;;;;3.83;1.17;;;14.80;99.90;;;;;;12381437;28;20482;-80
2021/04/25 15:16:57;;;;;;;5.07;1.65;;;14.70;99.90;;;;;;12390764;28;20188;-80
2021/04/25 15:22:59;;;;;;;4.05;1.50;;;14.60;99.90;;;;;;12385068;28;20042;-80
2021/04/25 15:29:01;;;;;;;5.22;1.73;;;14.00;99.90;;;;;;12390187;28;20417;-80
2021/04/25 15:35:23;;;;;;;5.57;1.40;;;13.40;99.90;;;;;;12382242;28;20034;-80
2021/04/25 15:41:24;;;;;;;5.13;1.60;;;12.50;99.90;;;;;;12397537;28;20407;-80
2021/04/25 15:47:26;;;;;;;3.05;1.30;;;12.20;99.90;;;;;;12384259;28;20119;-80
2021/04/25 15:53:28;;;;;;;4.05;1.10;;;12.50;99.90;;;;;;12386049;28;20054;-80
2021/04/25 15:59:30;;;;;;;4.97;1.30;;;12.60;99.90;;;;;;12406185;28;20074;-80
2021/04/25 16:05:31;;;;;;;2.35;1.13;;;12.00;99.90;;;;;;12385891;28;20046;-80
2021/04/25 16:11:33;;;;;;;7.07;1.50;;;11.60;99.90;;;;;;12383354;28;20054;-80
2021/04/25 16:17:34;;;;;;;4.32;1.10;;;12.10;99.90;;;;;;12378739;28;20070;-80
2021/04/25 16:23:36;;;;;;;2.38;1.17;;;13.50;99.90;;;;;;12380274;28;20066;-80
2021/04/25 16:29:37;;;;;;;3.42;1.10;;;14.40;99.90;;;;;;12391845;28;20141;-80
2021/04/25 16:35:39;;;;;;;3.83;1.27;;;15.10;99.90;;;;;;12384118;28;20043;-80
2021/04/25 16:41:41;;;;;;;2.08;1.13;;;15.40;99.90;;;;;;12384193;28;20042;-80
2021/04/25 16:47:43;;;;;;;5.38;1.42;;;16.10;99.90;;;;;;12385540;28;20038;-80
2021/04/25 16:53:45;;;;;;;3.03;1.35;;;15.90;99.90;;;;;;12383026;28;20049;-80
2021/04/25 16:59:46;;;;;;;2.65;1.30;;;16.20;99.50;;;;;;12378691;28;20161;-79
2021/04/25 17:05:48;;;;;;;6.78;1.70;;;16.20;99.90;;;;;;12385042;28;20121;-80
2021/04/25 17:11:50;;;;;;;2.80;1.20;;;16.70;96.00;;;;;;12383331;28;20353;-80
2021/04/25 17:17:51;;;;;;;2.38;1.27;;;16.50;96.60;;;;;;12379630;28;20566;-80
2021/04/25 17:23:53;;;;;;;3.13;1.52;;;16.50;99.20;;;;;;12374107;28;20272;-80
2021/04/25 17:29:55;;;;;;;3.00;1.38;;;16.50;97.60;;;;;;12393884;28;20046;-80
2021/04/25 17:35:57;;;;;;;3.05;1.42;;;16.30;99.90;;;;;;12377384;28;20226;-80
2021/04/25 17:41:58;;;;;;;3.17;1.48;;;15.90;98.20;;;;;;12381096;28;20073;-80
2021/04/25 17:47:59;;;;;;;4.68;1.35;;;15.40;99.90;;;;;;12380749;28;20050;-80
2021/04/25 17:54:02;;;;;;;3.30;1.30;;;15.00;99.90;;;;;;12370222;28;20155;-80
2021/04/25 18:00:10;;;;;;;3.20;1.25;;;14.70;99.90;;;;;;12377329;28;20050;-80
2021/04/25 18:06:12;;;;;;;4.28;1.10;;;13.60;99.90;;;;;;12393493;28;20138;-80
2021/04/25 18:12:13;;;;;;;5.68;2.38;;;12.00;99.90;;;;;;12380184;28;20256;-80
2021/04/25 18:18:14;;;;;;;12.07;4.03;;;11.40;99.90;;;;;;12382297;28;20053;-80
2021/04/25 18:24:16;;;;;;;4.55;2.10;;;10.90;99.90;;;;;;12383384;28;20126;-80
2021/04/25 18:30:21;;;;;;;4.65;1.50;;;10.60;99.90;;;;;;12385873;28;20149;-81
2021/04/25 18:36:23;;;;;;;4.75;1.40;;;10.20;99.90;;;;;;12382392;28;20112;-80
2021/04/25 18:42:25;;;;;;;2.85;1.58;;;9.90;99.90;;;;;;12383605;28;20081;-81
2021/04/25 18:48:27;;;;;;;5.50;1.50;;;9.60;99.90;;;;;;12397539;28;20081;-80
2021/04/25 18:54:28;;;;;;;4.07;1.67;;;9.20;99.90;;;;;;12405944;28;20034;-81
2021/04/25 19:00:46;;;;;;;5.28;1.35;;;9.00;99.90;;;;;;12393810;28;20092;-80
2021/04/25 19:06:47;;;;;;;5.85;1.50;;;8.70;99.90;;;;;;12395731;28;20189;-80
2021/04/25 19:12:48;;;;;;;3.80;1.67;;;8.50;99.90;;;;;;12397464;28;20054;-80
2021/04/25 19:18:50;;;;;;;2.92;1.30;;;8.40;99.90;;;;;;12392447;28;20076;-80
2021/04/25 19:24:51;;;;;;;3.75;1.40;;;8.10;99.90;;;;;;12394464;28;20129;-80
2021/04/25 19:30:53;;;;;;;5.38;1.63;;;7.90;99.90;;;;;;12390237;28;20461;-80
2021/04/25 19:36:54;;;;;;;2.72;1.50;;;7.50;99.90;;;;;;12383566;28;20137;-80
2021/04/25 19:42:56;;;;;;;3.40;1.60;;;7.40;99.90;;;;;;12403304;28;20518;-80
2021/04/25 19:48:58;;;;;;;4.85;1.80;;;7.30;99.90;;;;;;12390228;28;20050;-80
2021/04/25 19:54:59;;;;;;;4.18;1.92;;;6.70;99.90;;;;;;12387328;28;20129;-80
2021/04/25 20:01:04;;;;;;;5.72;2.53;;;6.70;99.90;;;;;;12390025;28;20492;-80
2021/04/25 20:07:05;;;;;;;6.15;2.58;;;6.80;99.90;;;;;;12388817;28;20109;-80
2021/04/25 20:13:08;;;;;;;5.18;2.20;;;6.80;99.90;;;;;;12383607;28;20114;-80
2021/04/25 20:19:09;;;;;;;6.80;2.40;;;6.70;99.90;;;;;;12380430;28;20054;-79
2021/04/25 20:25:28;;;;;;;6.55;2.67;;;6.40;99.90;;;;;;12383633;28;20100;-80
2021/04/25 20:31:30;;;;;;;5.50;2.45;;;6.60;99.90;;;;;;12386424;28;20082;-80
2021/04/25 20:37:32;;;;;;;4.35;2.35;;;6.80;99.90;;;;;;12391136;28;20050;-79
2021/04/25 20:43:33;;;;;;;4.28;2.20;;;6.30;99.90;;;;;;12387318;28;20613;-80
2021/04/25 20:49:35;;;;;;;4.00;2.10;;;6.20;99.90;;;;;;12400906;28;20050;-80
2021/04/25 20:55:37;;;;;;;4.60;2.38;;;6.30;99.90;;;;;;12385557;28;20099;-81
2021/04/25 21:01:38;;;;;;;4.97;2.05;;;6.10;99.90;;;;;;12388355;28;20499;-80
2021/04/25 21:07:40;;;;;;;3.65;1.80;;;6.00;99.90;;;;;;12405690;28;20796;-80
2021/04/25 21:13:42;;;;;;;4.35;2.28;;;5.80;99.90;;;;;;12386407;28;20510;-80
2021/04/25 21:19:43;;;;;;;3.65;1.88;;;5.90;99.90;;;;;;12387967;28;20058;-80
2021/04/25 21:25:44;;;;;;;4.93;2.03;;;5.20;99.90;;;;;;12382684;28;20042;-80
2021/04/25 21:31:46;;;;;;;4.18;1.80;;;5.60;99.90;;;;;;12410730;28;20042;-80
2021/04/25 21:37:48;;;;;;;3.80;2.03;;;5.70;99.90;;;;;;12388061;28;20057;-80
2021/04/25 21:43:50;;;;;;;4.35;2.00;;;5.50;99.90;;;;;;12386566;28;20078;-80
2021/04/25 21:49:51;;;;;;;4.35;1.92;;;5.50;99.90;;;;;;12384731;28;20061;-79
2021/04/25 21:55:53;;;;;;;4.85;2.03;;;5.50;99.90;;;;;;12386940;28;20128;-80
2021/04/25 22:01:54;;;;;;;7.22;1.90;;;5.50;99.90;;;;;;12390139;28;20050;-80
2021/04/25 22:07:55;;;;;;;3.97;1.80;;;5.50;99.90;;;;;;12388498;28;20097;-79
2021/04/25 22:13:58;;;;;;;4.38;1.98;;;5.40;99.90;;;;;;12382298;28;20053;-79
2021/04/25 22:19:59;;;;;;;4.60;1.83;;;5.30;99.90;;;;;;12385733;28;20100;-80
2021/04/25 22:26:00;;;;;;;3.53;1.67;;;5.20;99.90;;;;;;12355645;28;20069;-79
2021/04/25 22:32:02;;;;;;;5.18;1.70;;;5.40;99.90;;;;;;12371456;28;20080;-79
2021/04/25 22:38:05;;;;;;;3.42;1.50;;;5.10;99.90;;;;;;12390033;28;20337;-80
2021/04/25 22:44:06;;;;;;;3.53;1.90;;;5.20;99.90;;;;;;12407860;28;20050;-80
2021/04/25 22:50:08;;;;;;;4.07;1.70;;;5.00;99.90;;;;;;12390892;28;20104;-80
2021/04/25 22:56:10;;;;;;;4.55;1.50;;;5.10;99.90;;;;;;12424926;28;20136;-79
2021/04/25 23:02:11;;;;;;;4.25;1.80;;;5.00;99.90;;;;;;12391473;28;20148;-79
2021/04/25 23:08:13;;;;;;;3.40;1.80;;;4.80;99.90;;;;;;12407096;28;20058;-79
2021/04/25 23:14:14;;;;;;;2.75;1.30;;;4.80;99.90;;;;;;12399724;28;20573;-79
2021/04/25 23:20:18;;;;;;;2.53;1.35;;;4.80;99.90;;;;;;12390280;28;20054;-80
2021/04/25 23:26:20;;;;;;;4.75;1.60;;;4.50;99.90;;;;;;12395030;28;20396;-79
2021/04/25 23:32:21;;;;;;;3.63;1.75;;;4.30;99.90;;;;;;12373588;28;20046;-81
2021/04/25 23:38:23;;;;;;;2.75;1.40;;;4.30;99.90;;;;;;12346300;28;20051;-80
2021/04/25 23:44:24;;;;;;;2.78;1.30;;;4.10;99.90;;;;;;12388402;28;20054;-80
2021/04/25 23:50:26;;;;;;;2.97;1.73;;;3.90;99.90;;;;;;12396714;28;20125;-79
2021/04/25 23:56:27;;;;;;;3.75;1.52;;;3.90;99.90;;;;;;12392617;28;20046;-79
